Time;durP1;ratioP1;P1;durP2;ratioP2;P2;SDS_P1;SDS_P2;PMS_P1;PMS_P2;Temp;Humidity;BMP_temperature;BMP_pressure;BME280_temperature;BME280_humidity;BME280_pressure;Samples;Min_cycle;Max_cycle;Signal;HPM_P1;HPM_P2
2023/05/28 00:02:04;;;;;;;19.93;10.00;;;17.80;99.90;;;;;;5074353;28;20115;-69
2023/05/28 00:04:29;;;;;;;12.38;9.65;;;17.80;99.90;;;;;;5073228;28;20443;-70
2023/05/28 00:06:55;;;;;;;17.17;8.97;;;17.80;99.90;;;;;;5069119;28;20032;-70
2023/05/28 00:09:21;;;;;;;21.77;9.33;;;17.70;99.90;;;;;;5074899;28;20036;-70
2023/05/28 00:11:47;;;;;;;19.02;9.75;;;17.60;99.90;;;;;;5067735;28;20071;-69
2023/05/28 00:14:13;;;;;;;13.48;9.70;;;17.50;99.90;;;;;;5069372;28;20086;-68
2023/05/28 00:16:40;;;;;;;15.20;9.75;;;17.60;99.90;;;;;;5070383;28;20401;-69
2023/05/28 00:19:06;;;;;;;17.05;10.20;;;17.50;99.90;;;;;;5071289;28;20496;-69
2023/05/28 00:21:36;;;;;;;14.67;10.37;;;17.50;99.90;;;;;;5071459;28;20060;-69
2023/05/28 00:24:02;;;;;;;20.23;10.65;;;17.50;99.90;;;;;;5072868;28;20821;-69
2023/05/28 00:26:28;;;;;;;15.63;10.32;;;17.50;99.90;;;;;;5070278;28;20039;-69
2023/05/28 00:28:54;;;;;;;23.38;11.07;;;17.40;99.90;;;;;;5074712;28;20036;-69
2023/05/28 00:31:20;;;;;;;12.52;9.63;;;17.40;99.90;;;;;;5070881;28;20051;-71
2023/05/28 00:33:45;;;;;;;13.47;10.27;;;17.30;99.90;;;;;;5071089;28;20029;-70
2023/05/28 00:36:14;;;;;;;13.20;9.13;;;17.40;99.90;;;;;;5073228;28;20416;-70
2023/05/28 00:38:39;;;;;;;14.18;9.70;;;17.40;99.90;;;;;;5075757;28;20037;-69
2023/05/28 00:41:05;;;;;;;14.03;10.17;;;17.30;99.90;;;;;;5074790;28;20404;-70
2023/05/28 00:43:31;;;;;;;16.80;10.65;;;17.30;99.90;;;;;;5066507;28;20087;-69
2023/05/28 00:46:00;;;;;;;15.23;11.13;;;17.40;99.90;;;;;;5073401;28;20032;-69
2023/05/28 00:48:26;;;;;;;18.42;10.30;;;17.30;99.90;;;;;;5065838;28;20440;-69
2023/05/28 00:50:53;;;;;;;13.32;9.73;;;17.40;99.90;;;;;;5068246;28;20036;-70
2023/05/28 00:53:19;;;;;;;18.77;10.18;;;17.40;99.90;;;;;;5068458;28;20032;-70
2023/05/28 00:55:45;;;;;;;18.05;10.10;;;17.30;99.90;;;;;;5069538;28;20029;-70
2023/05/28 00:58:11;;;;;;;17.98;9.93;;;17.20;99.90;;;;;;5069108;28;20140;-70
2023/05/28 01:00:37;;;;;;;13.80;9.85;;;17.10;99.90;;;;;;5069564;28;20560;-71
2023/05/28 01:03:05;;;;;;;18.70;10.95;;;17.10;99.90;;;;;;5067542;28;20045;-70
2023/05/28 01:05:34;;;;;;;17.63;10.98;;;17.00;99.90;;;;;;5071579;28;20035;-69
2023/05/28 01:08:05;;;;;;;16.58;10.38;;;17.00;99.90;;;;;;5067273;28;20029;-72
2023/05/28 01:10:32;;;;;;;15.02;10.55;;;17.00;99.90;;;;;;5068289;28;20078;-71
2023/05/28 01:12:59;;;;;;;14.52;10.32;;;17.00;99.90;;;;;;5071922;28;20044;-71
2023/05/28 01:15:25;;;;;;;18.67;10.45;;;16.90;99.90;;;;;;5068631;28;20012;-71
2023/05/28 01:17:57;;;;;;;12.82;10.00;;;16.80;99.90;;;;;;5065962;28;20046;-71
2023/05/28 01:20:25;;;;;;;16.08;10.15;;;16.70;99.90;;;;;;5062685;28;20084;-70
2023/05/28 01:23:06;;;;;;;16.02;10.35;;;16.70;99.90;;;;;;5066196;28;20407;-70
2023/05/28 01:25:33;;;;;;;17.92;10.18;;;16.80;99.90;;;;;;5064358;28;20515;-70
2023/05/28 01:28:03;;;;;;;16.88;10.45;;;16.80;99.90;;;;;;5072666;28;20472;-71
2023/05/28 01:30:28;;;;;;;13.07;10.02;;;16.80;99.90;;;;;;5072343;28;20556;-70
2023/05/28 01:32:54;;;;;;;14.65;10.60;;;16.90;99.90;;;;;;5061284;28;20033;-70
2023/05/28 01:35:20;;;;;;;16.20;11.43;;;16.80;99.90;;;;;;5072863;28;20128;-70
2023/05/28 01:37:53;;;;;;;18.63;10.88;;;16.90;99.90;;;;;;5068698;28;20029;-70
2023/05/28 01:40:20;;;;;;;18.00;9.98;;;16.90;99.90;;;;;;5066766;28;20036;-70
2023/05/28 01:42:47;;;;;;;16.80;9.05;;;16.90;99.90;;;;;;5066537;28;20044;-71
2023/05/28 01:45:13;;;;;;;17.67;9.25;;;16.70;99.90;;;;;;5068430;28;20450;-69
2023/05/28 01:47:40;;;;;;;15.07;9.52;;;16.70;99.90;;;;;;5065625;28;20043;-71
2023/05/28 01:50:07;;;;;;;15.30;9.25;;;16.70;99.90;;;;;;5063906;28;20033;-70
2023/05/28 01:52:33;;;;;;;16.50;10.63;;;16.60;99.90;;;;;;5070027;28;20094;-70
2023/05/28 01:54:58;;;;;;;16.63;10.95;;;16.50;99.90;;;;;;5068991;28;20025;-70
2023/05/28 01:57:24;;;;;;;18.33;11.33;;;16.50;99.90;;;;;;5063021;28;20035;-69
2023/05/28 01:59:50;;;;;;;21.00;11.93;;;16.60;99.90;;;;;;5070794;28;20535;-69
2023/05/28 02:02:15;;;;;;;20.40;11.07;;;16.50;99.90;;;;;;5067693;28;20032;-69
2023/05/28 02:04:41;;;;;;;18.50;9.93;;;16.50;99.90;;;;;;5070078;28;20032;-69
2023/05/28 02:07:07;;;;;;;12.37;9.20;;;16.50;99.90;;;;;;5070540;28;20077;-72
2023/05/28 02:09:32;;;;;;;17.47;10.73;;;16.30;99.90;;;;;;5061145;28;20029;-70
2023/05/28 02:12:02;;;;;;;23.83;10.90;;;16.40;99.90;;;;;;5060156;28;21090;-72
2023/05/28 02:14:28;;;;;;;19.85;10.55;;;16.40;99.90;;;;;;5065535;28;20041;-72
2023/05/28 02:16:54;;;;;;;19.48;11.30;;;16.40;99.90;;;;;;5066804;28;20148;-71
2023/05/28 02:19:19;;;;;;;16.83;10.60;;;16.40;99.90;;;;;;5061969;28;20112;-71
2023/05/28 02:21:46;;;;;;;14.60;10.50;;;16.40;99.90;;;;;;5070180;28;20024;-70
2023/05/28 02:24:11;;;;;;;21.50;11.32;;;16.40;99.90;;;;;;5069249;28;20506;-70
2023/05/28 02:26:37;;;;;;;16.70;10.23;;;16.40;99.90;;;;;;5070342;28;20036;-71
2023/05/28 02:29:03;;;;;;;17.47;10.13;;;16.40;99.90;;;;;;5073336;28;20036;-70
2023/05/28 02:31:28;;;;;;;22.60;9.73;;;16.30;99.90;;;;;;5069087;28;20028;-71
2023/05/28 02:33:54;;;;;;;21.37;9.93;;;16.30;99.90;;;;;;5068298;28;20036;-69
2023/05/28 02:36:20;;;;;;;19.90;10.87;;;16.30;99.90;;;;;;5068959;28;20032;-70
2023/05/28 02:38:46;;;;;;;13.60;9.98;;;16.10;99.90;;;;;;5070187;28;20404;-68
2023/05/28 02:41:12;;;;;;;14.30;9.57;;;16.20;99.90;;;;;;5070549;28;20035;-72
2023/05/28 02:43:37;;;;;;;18.70;10.53;;;16.10;99.90;;;;;;5072900;28;20538;-69
2023/05/28 02:46:03;;;;;;;20.57;10.07;;;16.10;99.90;;;;;;5072047;28;20036;-71
2023/05/28 02:48:29;;;;;;;13.33;9.40;;;16.10;99.90;;;;;;5064525;28;20545;-72
2023/05/28 02:50:54;;;;;;;17.95;9.95;;;16.10;99.90;;;;;;5063839;28;20025;-70
2023/05/28 02:53:21;;;;;;;14.50;9.83;;;16.20;99.90;;;;;;5070217;28;20032;-72
2023/05/28 02:55:47;;;;;;;15.30;10.10;;;16.30;99.90;;;;;;5074869;28;20074;-72
2023/05/28 02:58:13;;;;;;;11.05;8.93;;;16.40;99.90;;;;;;5062883;28;20446;-71
2023/05/28 03:00:40;;;;;;;20.42;10.18;;;16.30;99.90;;;;;;5065672;28;20024;-72
2023/05/28 03:03:06;;;;;;;16.63;9.65;;;16.20;99.90;;;;;;5068852;28;20040;-71
2023/05/28 03:05:32;;;;;;;13.47;9.33;;;16.20;99.90;;;;;;5072091;28;20089;-69
2023/05/28 03:07:58;;;;;;;14.50;9.45;;;15.90;99.90;;;;;;5070284;28;20037;-69
2023/05/28 03:10:24;;;;;;;16.27;9.60;;;15.70;99.90;;;;;;5066726;28;20036;-69
2023/05/28 03:12:49;;;;;;;12.63;9.70;;;15.90;99.90;;;;;;5062799;28;20093;-71
2023/05/28 03:15:15;;;;;;;14.77;8.90;;;16.00;99.90;;;;;;5063929;28;20365;-70
2023/05/28 03:17:41;;;;;;;17.40;10.07;;;16.00;99.90;;;;;;5069166;28;20037;-72
2023/05/28 03:20:10;;;;;;;16.40;9.60;;;15.70;99.90;;;;;;5075915;28;20024;-71
2023/05/28 03:22:39;;;;;;;16.05;9.55;;;15.70;99.90;;;;;;5062965;28;20524;-71
2023/05/28 03:25:05;;;;;;;20.40;9.80;;;15.80;99.90;;;;;;5066930;28;20103;-71
2023/05/28 03:27:32;;;;;;;13.68;10.20;;;15.80;99.90;;;;;;5071885;28;20115;-72
2023/05/28 03:29:58;;;;;;;18.25;10.25;;;15.70;99.90;;;;;;5073195;28;20028;-71
2023/05/28 03:32:23;;;;;;;20.65;10.30;;;15.70;99.90;;;;;;5065690;28;20028;-71
2023/05/28 03:34:49;;;;;;;12.93;9.93;;;15.70;99.90;;;;;;5071404;28;20119;-71
2023/05/28 03:37:15;;;;;;;16.80;8.93;;;15.60;99.90;;;;;;5070196;28;20113;-72
2023/05/28 03:39:40;;;;;;;15.70;10.75;;;15.70;99.90;;;;;;5062973;28;20504;-71
2023/05/28 03:42:07;;;;;;;15.07;9.93;;;15.70;99.90;;;;;;5065198;28;20039;-71
2023/05/28 03:44:33;;;;;;;;;;;15.70;99.90;;;;;;5072277;28;20093;-71
2023/05/28 03:46:59;;;;;;;20.52;10.98;;;15.70;99.90;;;;;;5065273;28;19912;-70
2023/05/28 03:49:24;;;;;;;16.47;10.13;;;15.70;99.90;;;;;;5063818;28;20482;-72
2023/05/28 03:51:50;;;;;;;20.43;10.40;;;15.60;99.90;;;;;;5071604;28;20544;-73
2023/05/28 03:54:15;;;;;;;22.93;10.13;;;15.50;99.90;;;;;;5072290;28;20044;-69
2023/05/28 03:56:41;;;;;;;27.93;9.40;;;15.50;99.90;;;;;;5067416;28;20040;-73
2023/05/28 03:59:06;;;;;;;17.77;10.90;;;15.50;99.90;;;;;;5061904;28;20052;-72
2023/05/28 04:01:34;;;;;;;17.77;10.80;;;15.40;99.90;;;;;;5066055;28;20430;-72
2023/05/28 04:03:59;;;;;;;18.55;9.75;;;15.50;99.90;;;;;;5068272;28;20048;-72
2023/05/28 04:06:25;;;;;;;15.67;10.40;;;15.40;99.90;;;;;;5064977;28;20020;-71
2023/05/28 04:08:52;;;;;;;16.73;9.60;;;15.40;99.90;;;;;;5065470;28;20510;-70
2023/05/28 04:11:18;;;;;;;16.27;9.63;;;15.50;99.90;;;;;;5065256;28;20075;-69
2023/05/28 04:13:43;;;;;;;21.07;10.83;;;15.40;99.90;;;;;;5062113;28;20449;-69
2023/05/28 04:16:09;;;;;;;14.57;9.60;;;15.50;99.90;;;;;;5065877;28;20031;-69
2023/05/28 04:18:35;;;;;;;16.87;10.57;;;15.50;99.90;;;;;;5064832;28;20021;-68
2023/05/28 04:21:00;;;;;;;20.50;10.77;;;15.40;99.90;;;;;;5061128;28;20306;-71
2023/05/28 04:23:26;;;;;;;21.10;11.23;;;15.40;99.90;;;;;;5070000;28;20044;-69
2023/05/28 04:25:53;;;;;;;20.13;9.97;;;15.50;99.90;;;;;;5073518;28;20062;-72
2023/05/28 04:28:19;;;;;;;19.50;11.43;;;15.50;99.90;;;;;;5073753;28;20360;-69
2023/05/28 04:30:45;;;;;;;22.00;11.70;;;15.60;99.90;;;;;;5068120;28;20722;-69
2023/05/28 04:33:10;;;;;;;18.63;11.67;;;15.70;99.90;;;;;;5072665;28;20020;-70
2023/05/28 04:35:36;;;;;;;16.43;11.00;;;15.70;99.90;;;;;;5073855;28;20106;-69
2023/05/28 04:38:01;;;;;;;18.50;11.70;;;15.80;99.90;;;;;;5076946;28;20028;-68
2023/05/28 04:40:27;;;;;;;17.63;10.90;;;15.90;99.90;;;;;;5068739;28;20024;-69
2023/05/28 04:42:53;;;;;;;14.93;11.07;;;16.00;99.90;;;;;;5076222;28;20038;-68
2023/05/28 04:45:19;;;;;;;14.57;11.25;;;15.90;99.90;;;;;;5076576;28;20035;-70
2023/05/28 04:47:45;;;;;;;14.40;10.40;;;15.90;99.90;;;;;;5066337;28;20033;-69
2023/05/28 04:50:11;;;;;;;16.90;11.13;;;16.00;99.90;;;;;;5062114;28;20105;-69
2023/05/28 04:52:37;;;;;;;15.10;10.80;;;15.90;99.90;;;;;;5076982;28;20095;-69
2023/05/28 04:55:06;;;;;;;16.00;12.40;;;15.90;99.90;;;;;;5064959;28;20489;-69
2023/05/28 04:57:32;;;;;;;19.30;11.80;;;16.00;99.90;;;;;;5069313;28;20297;-69
2023/05/28 04:59:58;;;;;;;20.58;11.48;;;16.00;99.90;;;;;;5068997;28;20510;-70
2023/05/28 05:02:24;;;;;;;17.88;10.43;;;16.00;99.90;;;;;;5070314;28;20051;-69
2023/05/28 05:04:50;;;;;;;18.47;11.87;;;15.90;99.90;;;;;;5072421;28;20397;-69
2023/05/28 05:07:17;;;;;;;18.23;10.87;;;16.10;99.90;;;;;;5072490;28;20514;-70
2023/05/28 05:09:43;;;;;;;17.25;10.75;;;16.40;99.90;;;;;;5061257;28;20036;-71
2023/05/28 05:12:09;;;;;;;23.07;10.87;;;16.50;99.90;;;;;;5070806;28;20393;-70
2023/05/28 05:14:35;;;;;;;23.95;10.55;;;16.60;99.90;;;;;;5074890;28;20028;-72
2023/05/28 05:17:02;;;;;;;19.75;10.60;;;16.50;99.90;;;;;;5066116;28;20045;-70
2023/05/28 05:19:28;;;;;;;17.52;11.35;;;17.00;99.90;;;;;;5066580;28;20021;-71
2023/05/28 05:21:53;;;;;;;18.37;10.20;;;17.00;99.90;;;;;;5076388;28;20025;-70
2023/05/28 05:24:19;;;;;;;14.60;10.33;;;17.10;99.90;;;;;;5062422;28;20582;-70
2023/05/28 05:26:45;;;;;;;16.52;10.27;;;17.50;99.90;;;;;;5090537;27;20086;-69
2023/05/28 05:29:11;;;;;;;16.75;9.48;;;18.60;99.90;;;;;;5061748;28;20134;-69
2023/05/28 05:31:37;;;;;;;21.30;10.27;;;19.30;99.90;;;;;;5065650;28;20434;-69
2023/05/28 05:34:03;;;;;;;11.55;8.68;;;19.10;99.90;;;;;;5062341;28;20033;-69
2023/05/28 05:36:30;;;;;;;15.55;10.63;;;18.70;99.90;;;;;;5060170;28;20029;-70
2023/05/28 05:38:55;;;;;;;17.42;9.80;;;18.40;99.90;;;;;;5067314;28;20036;-69
2023/05/28 05:41:21;;;;;;;17.10;10.67;;;17.90;99.90;;;;;;5064845;28;20358;-69
2023/05/28 05:43:46;;;;;;;18.33;9.15;;;18.30;99.90;;;;;;5065691;28;20036;-69
2023/05/28 05:46:12;;;;;;;16.13;9.63;;;20.10;99.90;;;;;;5065983;28;20412;-70
2023/05/28 05:48:38;;;;;;;11.90;9.30;;;21.50;96.20;;;;;;5062330;28;20029;-70
2023/05/28 05:51:03;;;;;;;12.17;9.43;;;22.00;94.30;;;;;;5059702;28;20187;-70
2023/05/28 05:53:29;;;;;;;14.18;9.27;;;22.10;92.00;;;;;;5076461;28;20032;-70
2023/05/28 05:55:55;;;;;;;20.50;10.17;;;22.50;91.70;;;;;;5061064;28;20113;-70
2023/05/28 05:58:21;;;;;;;16.60;8.63;;;22.70;91.30;;;;;;5069168;28;20028;-69
2023/05/28 06:00:47;;;;;;;16.42;9.40;;;24.20;88.50;;;;;;5062243;28;20043;-69
2023/05/28 06:03:14;;;;;;;11.05;7.85;;;25.30;82.40;;;;;;5062558;28;20051;-70
2023/05/28 06:05:40;;;;;;;13.77;8.35;;;26.40;78.20;;;;;;5063035;28;20111;-69
2023/05/28 06:08:05;;;;;;;14.82;7.68;;;26.40;78.00;;;;;;5066701;28;20521;-69
2023/05/28 06:10:31;;;;;;;12.13;8.35;;;27.20;75.00;;;;;;5067744;28;20032;-69
2023/05/28 06:13:00;;;;;;;9.20;7.03;;;26.40;74.60;;;;;;5063192;28;20093;-70
2023/05/28 06:15:27;;;;;;;13.65;7.43;;;27.30;72.90;;;;;;5083323;27;20033;-70
2023/05/28 06:17:52;;;;;;;14.20;7.72;;;27.80;71.40;;;;;;5095939;27;20139;-70
2023/05/28 06:20:19;;;;;;;10.95;8.02;;;28.60;70.30;;;;;;5066348;28;20158;-70
2023/05/28 06:22:45;;;;;;;9.35;7.30;;;29.20;68.50;;;;;;5059875;28;20565;-70
2023/05/28 06:25:11;;;;;;;16.63;7.85;;;27.20;71.30;;;;;;5065411;28;20036;-70
2023/05/28 06:27:37;;;;;;;;;;;27.60;71.70;;;;;;5069693;28;20023;-70
2023/05/28 06:30:04;;;;;;;10.80;7.97;;;27.00;73.50;;;;;;5074068;28;20319;-70
2023/05/28 06:32:31;;;;;;;11.25;7.28;;;26.00;74.20;;;;;;5063146;28;20037;-70
2023/05/28 06:34:57;;;;;;;;;;;25.70;74.80;;;;;;5062393;28;20158;-70
2023/05/28 06:37:22;;;;;;;15.82;8.55;;;25.40;74.80;;;;;;5059031;28;20010;-70
2023/05/28 06:39:48;;;;;;;13.52;8.00;;;25.70;74.50;;;;;;5092151;27;20047;-70
2023/05/28 06:42:13;;;;;;;88.87;11.73;;;25.10;75.40;;;;;;5052863;28;20029;-70
2023/05/28 06:44:39;;;;;;;11.27;8.20;;;24.80;79.10;;;;;;5060220;28;20369;-70
2023/05/28 06:47:05;;;;;;;14.60;7.95;;;25.60;76.90;;;;;;5066047;28;20017;-71
2023/05/28 06:49:31;;;;;;;13.73;8.30;;;26.20;74.60;;;;;;5057269;28;20037;-72
2023/05/28 06:51:56;;;;;;;13.65;8.38;;;25.60;75.20;;;;;;5065244;28;20513;-71
2023/05/28 06:54:22;;;;;;;12.88;7.93;;;24.90;76.50;;;;;;5063907;28;20052;-71
2023/05/28 06:56:47;;;;;;;19.93;8.73;;;24.40;79.60;;;;;;5063779;28;20115;-71
2023/05/28 06:59:13;;;;;;;12.07;8.40;;;24.30;80.10;;;;;;5061643;28;20029;-71
2023/05/28 07:01:39;;;;;;;14.77;8.80;;;24.00;80.20;;;;;;5057032;28;20051;-71
2023/05/28 07:04:04;;;;;;;13.18;8.05;;;23.80;82.00;;;;;;5060637;28;20299;-71
2023/05/28 07:06:30;;;;;;;16.58;9.45;;;24.30;80.80;;;;;;5064570;28;20104;-70
2023/05/28 07:08:56;;;;;;;21.38;8.43;;;24.50;79.60;;;;;;5066859;28;20488;-70
2023/05/28 07:11:21;;;;;;;12.63;7.80;;;24.40;80.80;;;;;;5061594;28;20555;-71
2023/05/28 07:13:47;;;;;;;15.23;8.30;;;24.20;80.80;;;;;;5059742;28;20029;-71
2023/05/28 07:16:13;;;;;;;13.23;9.10;;;23.80;82.50;;;;;;5061155;28;20048;-71
2023/05/28 07:18:39;;;;;;;15.60;10.02;;;23.50;83.20;;;;;;5056223;28;20052;-71
2023/05/28 07:21:07;;;;;;;13.90;8.75;;;23.50;84.10;;;;;;5059008;28;20113;-72
2023/05/28 07:23:33;;;;;;;20.23;10.20;;;23.40;84.40;;;;;;5068872;28;20123;-72
2023/05/28 07:25:59;;;;;;;16.83;10.73;;;23.20;83.90;;;;;;5067139;28;20132;-71
2023/05/28 07:28:24;;;;;;;24.43;11.17;;;23.10;85.00;;;;;;5069147;28;20408;-73
2023/05/28 07:30:51;;;;;;;46.88;14.85;;;23.30;87.20;;;;;;5060609;28;20104;-71
2023/05/28 07:33:16;;;;;;;16.55;10.38;;;23.20;86.80;;;;;;5061276;28;20044;-74
2023/05/28 07:35:42;;;;;;;12.70;9.73;;;23.20;89.90;;;;;;5063874;28;20564;-74
2023/05/28 07:38:10;;;;;;;14.35;9.68;;;23.30;89.70;;;;;;5066950;28;20037;-73
2023/05/28 07:40:36;;;;;;;23.60;10.07;;;23.30;88.90;;;;;;5078433;28;20033;-73
2023/05/28 07:43:02;;;;;;;14.32;10.00;;;23.20;87.10;;;;;;5060615;28;20052;-73
2023/05/28 07:45:27;;;;;;;17.13;10.10;;;23.20;87.50;;;;;;5063010;28;20436;-73
2023/05/28 07:47:53;;;;;;;15.65;10.38;;;23.10;88.90;;;;;;5059567;28;20119;-73
2023/05/28 07:50:18;;;;;;;14.27;9.63;;;23.20;89.10;;;;;;5062319;28;20039;-73
2023/05/28 07:52:45;;;;;;;15.10;9.53;;;23.20;90.10;;;;;;5058994;28;20283;-73
2023/05/28 07:55:11;;;;;;;18.88;10.63;;;23.40;86.90;;;;;;5063411;28;20032;-72
2023/05/28 07:57:37;;;;;;;17.55;9.07;;;23.30;88.40;;;;;;5067550;28;20378;-72
2023/05/28 08:00:06;;;;;;;25.83;9.70;;;23.30;87.60;;;;;;5067420;28;20083;-73
2023/05/28 08:02:33;;;;;;;14.55;8.35;;;23.40;87.20;;;;;;5062222;28;20406;-73
2023/05/28 08:05:00;;;;;;;11.98;9.45;;;23.40;87.20;;;;;;5076134;28;20047;-73
2023/05/28 08:07:27;;;;;;;12.30;8.80;;;23.50;87.80;;;;;;5068720;28;20017;-73
2023/05/28 08:09:53;;;;;;;22.98;8.98;;;24.30;85.00;;;;;;5063095;28;20032;-72
2023/05/28 08:12:19;;;;;;;12.75;8.38;;;26.30;81.00;;;;;;5068355;28;20043;-73
2023/05/28 08:14:44;;;;;;;12.77;7.75;;;28.10;75.20;;;;;;5070208;28;20032;-73
2023/05/28 08:17:10;;;;;;;21.70;8.80;;;27.40;74.70;;;;;;5059985;28;20077;-73
2023/05/28 08:19:36;;;;;;;13.13;8.63;;;26.30;77.20;;;;;;5062169;28;20031;-73
2023/05/28 08:22:01;;;;;;;12.35;8.82;;;26.90;75.40;;;;;;5065845;28;20055;-73
2023/05/28 08:24:27;;;;;;;17.83;8.57;;;28.70;72.00;;;;;;5068686;28;20656;-73
2023/05/28 08:26:53;;;;;;;12.18;7.90;;;29.60;70.40;;;;;;5074945;28;20094;-73
2023/05/28 08:29:18;;;;;;;11.25;8.02;;;31.10;67.00;;;;;;5067374;28;20064;-72
2023/05/28 08:31:44;;;;;;;18.98;7.78;;;31.80;65.90;;;;;;5064030;28;20025;-73
2023/05/28 08:34:10;;;;;;;10.63;8.02;;;31.70;65.80;;;;;;5068561;28;20036;-73
2023/05/28 08:36:36;;;;;;;17.42;8.18;;;31.90;63.00;;;;;;5065120;28;20086;-73
2023/05/28 08:39:02;;;;;;;;;;;32.00;64.90;;;;;;5061964;28;20044;-73
2023/05/28 08:41:27;;;;;;;9.93;7.38;;;32.30;63.20;;;;;;5066280;28;19908;-73
2023/05/28 08:43:53;;;;;;;13.00;7.13;;;31.70;64.20;;;;;;5058835;28;20041;-73
2023/05/28 08:46:19;;;;;;;;;;;31.70;63.10;;;;;;5065836;28;20454;-72
2023/05/28 08:48:45;;;;;;;14.52;7.50;;;30.60;64.30;;;;;;5097645;27;19919;-73
2023/05/28 08:51:11;;;;;;;14.73;7.88;;;29.50;64.60;;;;;;5063369;28;20052;-73
2023/05/28 08:53:43;;;;;;;11.75;7.38;;;28.70;69.00;;;;;;5066515;28;20777;-71
2023/05/28 08:56:09;;;;;;;9.23;7.30;;;29.50;66.50;;;;;;5063442;28;20114;-71
2023/05/28 08:58:38;;;;;;;13.40;8.30;;;31.30;63.70;;;;;;5062063;28;20024;-72
2023/05/28 09:01:06;;;;;;;14.13;7.45;;;32.50;63.90;;;;;;5061908;28;20424;-72
2023/05/28 09:03:33;;;;;;;11.93;7.45;;;33.60;61.30;;;;;;5065325;28;20029;-73
2023/05/28 09:05:59;;;;;;;13.15;6.82;;;34.00;60.90;;;;;;5064739;28;20076;-73
2023/05/28 09:08:24;;;;;;;;;;;34.20;60.80;;;;;;5062908;28;20106;-73
2023/05/28 09:10:50;;;;;;;11.13;7.22;;;34.50;61.50;;;;;;5057107;28;20069;-71
2023/05/28 09:13:20;;;;;;;16.02;7.20;;;35.00;60.30;;;;;;5061774;28;20028;-70
2023/05/28 09:15:52;;;;;;;15.70;6.57;;;35.10;58.00;;;;;;5064273;28;20039;-69
2023/05/28 09:18:21;;;;;;;10.93;7.05;;;35.30;59.70;;;;;;5063565;28;20021;-71
2023/05/28 09:20:51;;;;;;;15.75;7.13;;;35.50;57.30;;;;;;5058882;28;20511;-73
2023/05/28 09:23:18;;;;;;;9.95;6.78;;;35.70;58.40;;;;;;5058549;28;20085;-71
2023/05/28 09:25:44;;;;;;;15.15;6.97;;;36.40;57.10;;;;;;5065538;28;20012;-72
2023/05/28 09:28:13;;;;;;;15.00;6.32;;;36.50;57.50;;;;;;5065980;28;20500;-70
2023/05/28 09:30:39;;;;;;;11.68;6.07;;;36.70;55.50;;;;;;5063523;28;20024;-72
2023/05/28 09:33:07;;;;;;;10.98;6.88;;;36.20;55.60;;;;;;5066979;28;20021;-71
2023/05/28 09:35:33;;;;;;;12.63;6.65;;;36.10;56.00;;;;;;5063087;28;20044;-70
2023/05/28 09:38:10;;;;;;;12.60;7.10;;;35.70;56.40;;;;;;5097858;27;20028;-71
2023/05/28 09:40:39;;;;;;;9.00;6.20;;;35.90;55.60;;;;;;5064914;28;20055;-71
2023/05/28 09:43:06;;;;;;;10.43;6.10;;;35.90;57.90;;;;;;5065801;28;20041;-71
2023/05/28 09:45:33;;;;;;;12.45;6.40;;;35.80;56.60;;;;;;5060313;28;20020;-71
2023/05/28 09:47:59;;;;;;;12.80;6.28;;;35.80;56.00;;;;;;5058335;28;20436;-71
2023/05/28 09:50:25;;;;;;;12.90;6.57;;;35.80;55.90;;;;;;5068917;28;20058;-71
2023/05/28 09:52:58;;;;;;;16.20;6.90;;;36.40;55.70;;;;;;5060594;28;20036;-72
2023/05/28 09:55:26;;;;;;;9.63;6.63;;;35.80;56.60;;;;;;5063620;28;20028;-71
2023/05/28 09:58:11;;;;;;;9.80;6.22;;;36.20;56.60;;;;;;5059978;28;20025;-72
2023/05/28 10:00:44;;;;;;;8.30;5.65;;;36.00;56.70;;;;;;5065745;28;20240;-72
2023/05/28 10:03:16;;;;;;;11.65;6.13;;;35.80;56.50;;;;;;5061218;28;20043;-71
2023/05/28 10:05:44;;;;;;;7.53;5.68;;;36.10;56.40;;;;;;5066071;28;20484;-72
2023/05/28 10:08:16;;;;;;;9.10;5.97;;;35.60;55.10;;;;;;5066101;28;20024;-73
2023/05/28 10:10:43;;;;;;;8.02;6.13;;;35.90;57.80;;;;;;5066269;28;20037;-71
2023/05/28 10:13:11;;;;;;;10.50;6.05;;;34.70;56.60;;;;;;5064696;28;20020;-71
2023/05/28 10:15:37;;;;;;;7.82;5.28;;;33.10;57.90;;;;;;5060443;28;20420;-71
2023/05/28 10:18:05;;;;;;;9.23;6.18;;;32.90;57.10;;;;;;5061617;28;20024;-71
2023/05/28 10:20:30;;;;;;;8.20;5.82;;;32.30;58.90;;;;;;5058199;28;20033;-71
2023/05/28 10:22:57;;;;;;;10.40;6.32;;;31.90;58.90;;;;;;5061455;28;20036;-73
2023/05/28 10:25:23;;;;;;;7.30;6.00;;;31.40;60.90;;;;;;5066309;28;20032;-72
2023/05/28 10:27:49;;;;;;;11.77;6.45;;;31.30;65.40;;;;;;5063483;28;20066;-74
2023/05/28 10:30:34;;;;;;;11.23;7.03;;;31.10;61.50;;;;;;5060276;28;20040;-73
2023/05/28 10:33:00;;;;;;;8.40;6.38;;;30.70;63.60;;;;;;5061748;28;20025;-74
2023/05/28 10:35:26;;;;;;;11.23;6.47;;;30.60;64.20;;;;;;5056790;28;20075;-75
2023/05/28 10:38:06;;;;;;;9.70;6.38;;;30.50;63.40;;;;;;5058506;28;20017;-74
2023/05/28 10:40:38;;;;;;;14.82;8.05;;;30.40;64.20;;;;;;5063873;28;20036;-75
2023/05/28 10:43:04;;;;;;;9.93;6.45;;;30.20;64.60;;;;;;5061696;28;20384;-74
2023/05/28 10:45:36;;;;;;;;;;;30.20;64.10;;;;;;5060224;28;20048;-74
2023/05/28 10:48:02;;;;;;;12.82;6.57;;;30.10;63.40;;;;;;5053228;28;20432;-73
2023/05/28 10:50:28;;;;;;;;;;;29.90;65.40;;;;;;5060108;28;20132;-73
2023/05/28 10:53:11;;;;;;;10.80;7.05;;;30.00;67.20;;;;;;5064237;28;19920;-73
2023/05/28 10:55:53;;;;;;;14.73;7.60;;;29.50;61.80;;;;;;5059696;28;20025;-73
2023/05/28 10:58:33;;;;;;;11.13;6.10;;;29.80;64.80;;;;;;5061572;28;20077;-73
2023/05/28 11:01:19;;;;;;;13.50;6.93;;;30.00;65.80;;;;;;5061165;28;20089;-74
2023/05/28 11:03:51;;;;;;;10.73;7.07;;;30.10;63.20;;;;;;5062637;28;20496;-73
2023/05/28 11:06:16;;;;;;;10.75;6.50;;;29.90;64.70;;;;;;5063790;28;20020;-72
2023/05/28 11:08:44;;;;;;;10.82;6.80;;;29.90;61.40;;;;;;5059387;28;20586;-73
2023/05/28 11:11:14;;;;;;;17.20;7.60;;;29.80;63.90;;;;;;5058975;28;20048;-73
2023/05/28 11:13:48;;;;;;;13.23;6.25;;;29.60;60.90;;;;;;5056693;28;20555;-73
2023/05/28 11:16:18;;;;;;;13.20;6.75;;;29.60;65.90;;;;;;5091330;27;20060;-73
2023/05/28 11:19:04;;;;;;;10.25;6.00;;;29.50;65.90;;;;;;5062468;28;20147;-73
2023/05/28 11:21:32;;;;;;;11.37;6.10;;;29.40;64.10;;;;;;5061296;28;20520;-72
2023/05/28 11:24:04;;;;;;;11.02;6.28;;;29.60;65.60;;;;;;5061083;28;20051;-72
2023/05/28 11:26:31;;;;;;;13.80;5.88;;;29.50;62.20;;;;;;5060932;28;20083;-73
2023/05/28 11:28:57;;;;;;;12.35;5.80;;;29.70;65.10;;;;;;5059996;28;20040;-72
2023/05/28 11:31:23;;;;;;;;;;;29.50;62.10;;;;;;5059451;28;20111;-73
2023/05/28 11:33:49;;;;;;;10.80;6.15;;;29.40;63.00;;;;;;5058632;28;20471;-73
2023/05/28 11:36:15;;;;;;;10.85;6.60;;;29.50;64.30;;;;;;5067415;28;20032;-72
2023/05/28 11:38:41;;;;;;;11.48;6.80;;;29.30;64.80;;;;;;5070020;28;20016;-73
2023/05/28 11:41:06;;;;;;;8.93;6.60;;;29.20;65.80;;;;;;5061066;28;20043;-72
2023/05/28 11:43:32;;;;;;;12.10;6.68;;;29.10;64.30;;;;;;5062563;28;20063;-73
2023/05/28 11:45:59;;;;;;;9.57;5.85;;;29.00;68.00;;;;;;5070097;28;20411;-74
2023/05/28 11:48:30;;;;;;;12.30;6.50;;;29.20;68.50;;;;;;5067548;28;20113;-74
2023/05/28 11:51:01;;;;;;;12.40;7.22;;;28.90;64.00;;;;;;5060482;28;20033;-73
2023/05/28 11:53:43;;;;;;;8.98;6.00;;;29.30;67.80;;;;;;5070690;28;20032;-73
2023/05/28 11:56:10;;;;;;;11.75;7.30;;;29.50;65.70;;;;;;5066990;28;20035;-74
2023/05/28 11:58:43;;;;;;;12.85;6.35;;;29.60;64.10;;;;;;5066323;28;20547;-73
2023/05/28 12:01:13;;;;;;;12.63;6.72;;;29.40;63.80;;;;;;5063877;28;20025;-74
2023/05/28 12:03:38;;;;;;;10.07;6.28;;;29.40;63.20;;;;;;5064932;28;20045;-73
2023/05/28 12:06:04;;;;;;;9.00;6.25;;;29.50;65.20;;;;;;5066637;28;20035;-73
2023/05/28 12:08:29;;;;;;;13.00;6.90;;;29.30;62.80;;;;;;5064093;28;20047;-71
2023/05/28 12:11:04;;;;;;;11.63;5.70;;;29.40;67.50;;;;;;5061987;28;20031;-72
2023/05/28 12:13:34;;;;;;;14.63;6.32;;;29.60;64.70;;;;;;5064290;28;20094;-72
2023/05/28 12:16:15;;;;;;;9.90;6.35;;;29.70;66.80;;;;;;5064188;28;20021;-73
2023/05/28 12:18:44;;;;;;;9.32;5.88;;;29.80;65.50;;;;;;5064609;28;20032;-73
2023/05/28 12:21:20;;;;;;;12.88;5.97;;;29.90;66.70;;;;;;5063489;28;20028;-73
2023/05/28 12:23:46;;;;;;;16.65;6.20;;;29.90;65.90;;;;;;5067263;28;20086;-73
2023/05/28 12:26:13;;;;;;;11.98;6.32;;;29.90;64.50;;;;;;5068924;28;20036;-73
2023/05/28 12:28:40;;;;;;;8.02;5.93;;;29.80;64.40;;;;;;5063591;28;20040;-73
2023/05/28 12:31:07;;;;;;;8.82;6.25;;;29.80;67.60;;;;;;5063961;28;20028;-73
2023/05/28 12:33:33;;;;;;;12.93;6.68;;;29.90;65.70;;;;;;5065876;28;20118;-71
2023/05/28 12:35:59;;;;;;;10.45;5.55;;;30.00;64.40;;;;;;5070489;28;20062;-71
2023/05/28 12:38:26;;;;;;;13.85;6.63;;;29.80;66.80;;;;;;5067140;28;20038;-70